Time;durP1;ratioP1;P1;durP2;ratioP2;P2;SDS_P1;SDS_P2;PMS_P1;PMS_P2;Temp;Humidity;BMP_temperature;BMP_pressure;BME280_temperature;BME280_humidity;BME280_pressure;Samples;Min_cycle;Max_cycle;Signal;HPM_P1;HPM_P2
2022/04/15 00:02:48;;;;;;;26.80;13.60;;;;;;;9.06;95.97;100094.88;104868;1275;63084;-64
2022/04/15 00:05:40;;;;;;;27.60;12.80;;;;;;;9.02;96.07;100097.58;104675;1274;75640;-63
2022/04/15 00:08:28;;;;;;;23.60;11.90;;;;;;;9.00;96.32;100099.04;104640;1275;68451;-63
2022/04/15 00:11:16;;;;;;;27.40;13.00;;;;;;;8.96;96.62;100100.00;104646;1275;73524;-64
2022/04/15 00:14:04;;;;;;;27.50;13.20;;;;;;;8.95;96.51;100097.43;104861;1274;60483;-65
2022/04/15 00:16:52;;;;;;;25.70;11.80;;;;;;;8.93;96.65;100093.14;104768;1274;60867;-65
2022/04/15 00:19:40;;;;;;;24.90;12.70;;;;;;;8.92;96.98;100096.40;104942;1274;75509;-63
2022/04/15 00:22:28;;;;;;;25.20;12.40;;;;;;;8.92;96.87;100091.63;104579;1274;68670;-63
2022/04/15 00:25:16;;;;;;;25.50;13.20;;;;;;;8.90;97.14;100091.57;104947;1275;71983;-64
2022/04/15 00:28:04;;;;;;;24.00;11.80;;;;;;;8.90;97.10;100088.96;104863;1275;60413;-65
2022/04/15 00:30:53;;;;;;;23.20;12.00;;;;;;;8.90;97.39;100089.45;104743;1274;60480;-66
2022/04/15 00:33:41;;;;;;;25.50;12.80;;;;;;;8.90;97.47;100093.16;104755;1274;74226;-70
2022/04/15 00:36:30;;;;;;;26.80;12.50;;;;;;;8.89;97.43;100094.99;104922;1274;69734;-66
2022/04/15 00:39:18;;;;;;;27.50;12.90;;;;;;;8.89;97.33;100096.77;104601;1275;74454;-64
2022/04/15 00:42:08;;;;;;;27.20;12.70;;;;;;;8.91;97.32;100095.06;104769;1275;62272;-63
2022/04/15 00:44:58;;;;;;;24.50;12.50;;;;;;;8.92;97.16;100090.55;105013;1275;60491;-64
2022/04/15 00:47:51;;;;;;;25.00;13.10;;;;;;;8.93;96.95;100082.20;105263;1274;73853;-61
2022/04/15 00:50:40;;;;;;;25.70;12.30;;;;;;;8.93;96.98;100077.59;105701;1274;67684;-62
2022/04/15 00:53:30;;;;;;;27.60;13.00;;;;;;;8.94;96.81;100080.19;106218;1274;71842;-66
2022/04/15 00:56:23;;;;;;;25.30;13.00;;;;;;;8.94;96.75;100084.80;106649;1275;60379;-66
2022/04/15 00:59:12;;;;;;;23.00;12.70;;;;;;;8.94;96.91;100085.67;105447;1275;60433;-68
2022/04/15 01:02:02;;;;;;;27.40;13.10;;;;;;;8.93;97.00;100079.31;104528;1275;74403;-66
2022/04/15 01:04:52;;;;;;;25.90;13.30;;;;;;;8.92;96.98;100074.27;104743;1274;69676;-66
2022/04/15 01:07:47;;;;;;;24.30;12.50;;;;;;;8.91;97.24;100076.65;104697;1275;73641;-67
2022/04/15 01:10:36;;;;;;;28.80;13.10;;;;;;;8.90;97.11;100080.39;104552;1274;60471;-66
2022/04/15 01:13:26;;;;;;;27.50;13.10;;;;;;;8.91;97.39;100082.34;104567;1274;60483;-68
2022/04/15 01:16:16;;;;;;;25.10;11.30;;;;;;;8.89;97.39;100079.09;104704;1275;75481;-66
2022/04/15 01:19:04;;;;;;;28.00;14.10;;;;;;;8.88;97.62;100080.96;104716;1275;68394;-65
2022/04/15 01:21:55;;;;;;;24.20;13.10;;;;;;;8.86;97.61;100078.58;104668;1274;71967;-64
2022/04/15 01:24:44;;;;;;;25.80;12.40;;;;;;;8.85;97.60;100079.16;104891;1274;60470;-64
2022/04/15 01:27:38;;;;;;;28.80;13.90;;;;;;;8.84;97.69;100078.36;104854;1274;60516;-64
2022/04/15 01:30:26;;;;;;;28.50;14.60;;;;;;;8.82;98.06;100079.77;104796;1274;74126;-60
2022/04/15 01:33:15;;;;;;;30.80;14.70;;;;;;;8.81;97.78;100081.05;104705;1275;69739;-64
2022/04/15 01:36:08;;;;;;;30.30;14.40;;;;;;;8.82;97.79;100082.05;104680;1275;73480;-63
2022/04/15 01:38:57;;;;;;;27.20;13.10;;;;;;;8.83;97.85;100076.48;104676;1274;60504;-62
2022/04/15 01:41:45;;;;;;;30.10;14.10;;;;;;;8.82;98.17;100073.34;104880;1274;60363;-62
2022/04/15 01:44:34;;;;;;;30.20;13.80;;;;;;;8.82;97.88;100074.62;104686;1274;74777;-63
2022/04/15 01:47:22;;;;;;;49.90;21.00;;;;;;;8.84;98.03;100076.41;104680;1275;66881;-65
2022/04/15 01:50:11;;;;;;;41.70;20.60;;;;;;;8.86;98.04;100075.41;104771;1274;74534;-63
2022/04/15 01:52:59;;;;;;;34.60;16.60;;;;;;;8.88;98.02;100070.88;104732;1274;60480;-67
2022/04/15 01:55:48;;;;;;;30.80;15.80;;;;;;;8.91;98.01;100073.85;104899;1274;60529;-63
2022/04/15 01:58:36;;;;;;;35.40;16.70;;;;;;;8.94;97.82;100068.27;104646;1275;73692;-62
2022/04/15 02:01:25;;;;;;;31.40;15.30;;;;;;;8.98;97.54;100065.88;104834;1275;67548;-61
2022/04/15 02:04:14;;;;;;;33.90;15.90;;;;;;;9.02;97.35;100066.69;104709;1274;73338;-61
2022/04/15 02:07:03;;;;;;;36.10;16.60;;;;;;;9.05;97.32;100071.79;104712;1274;60554;-59
2022/04/15 02:09:54;;;;;;;36.80;16.30;;;;;;;9.11;97.33;100076.31;104534;1274;61913;-62
2022/04/15 02:12:42;;;;;;;32.20;15.30;;;;;;;9.14;97.13;100077.31;104662;1275;74646;-62
2022/04/15 02:15:30;;;;;;;35.20;17.10;;;;;;;9.17;96.92;100076.44;104704;1274;69698;-63
2022/04/15 02:18:17;;;;;;;31.90;15.40;;;;;;;9.20;96.92;100078.98;104868;1275;71514;-64
2022/04/15 02:21:10;;;;;;;33.80;17.00;;;;;;;9.23;96.69;100080.98;104566;1275;60608;-63
2022/04/15 02:23:58;;;;;;;31.00;15.20;;;;;;;9.23;96.80;100079.36;104786;1274;60504;-66
2022/04/15 02:26:46;;;;;;;34.90;17.40;;;;;;;9.23;96.59;100076.88;104870;1275;74956;-65
2022/04/15 02:29:35;;;;;;;34.90;17.30;;;;;;;9.21;96.52;100077.54;104884;1275;69151;-65
2022/04/15 02:32:24;;;;;;;37.60;18.80;;;;;;;9.21;96.83;100076.13;104898;1274;74320;-65
2022/04/15 02:35:12;;;;;;;39.60;18.90;;;;;;;9.21;96.87;100073.99;104580;1275;60527;-63
2022/04/15 02:37:59;;;;;;;34.70;17.50;;;;;;;9.19;97.01;100071.84;104686;1274;62065;-62
2022/04/15 02:40:47;;;;;;;38.20;19.50;;;;;;;9.18;97.06;100074.87;104764;1274;74154;-66
2022/04/15 02:43:38;;;;;;;34.90;16.70;;;;;;;9.19;97.33;100076.80;104666;1275;67626;-62
2022/04/15 02:46:25;;;;;;;38.40;18.60;;;;;;;9.19;97.65;100072.00;104543;1276;74528;-63
2022/04/15 02:49:14;;;;;;;39.00;18.40;;;;;;;9.19;97.64;100070.43;104664;1275;61356;-64
2022/04/15 02:52:04;;;;;;;33.80;16.90;;;;;;;9.19;97.64;100070.95;104496;1276;60837;-65
2022/04/15 02:54:51;;;;;;;39.00;17.80;;;;;;;9.19;98.23;100072.32;104592;1275;73287;-64
2022/04/15 02:57:40;;;;;;;40.20;18.60;;;;;;;9.22;98.21;100071.66;104681;1275;67743;-65
2022/04/15 03:00:27;;;;;;;37.00;18.50;;;;;;;9.21;98.54;100066.92;104701;1275;72717;-64
2022/04/15 03:03:16;;;;;;;35.60;18.20;;;;;;;9.18;98.36;100065.31;104885;1275;60622;-66
2022/04/15 03:06:04;;;;;;;42.00;19.20;;;;;;;9.17;98.70;100065.25;104759;1275;60468;-62
2022/04/15 03:08:51;;;;;;;38.10;18.30;;;;;;;9.18;98.97;100068.51;104669;1275;73342;-65
2022/04/15 03:11:40;;;;;;;42.30;19.10;;;;;;;9.18;99.16;100072.98;104718;1274;69606;-64
2022/04/15 03:14:27;;;;;;;37.00;17.70;;;;;;;9.17;98.95;100071.81;104771;1274;73674;-62
2022/04/15 03:17:16;;;;;;;38.80;18.70;;;;;;;9.17;99.25;100068.59;104678;1275;60488;-63
2022/04/15 03:20:06;;;;;;;42.70;18.30;;;;;;;9.17;99.63;100071.23;104701;1275;60509;-63
2022/04/15 03:22:54;;;;;;;40.20;19.40;;;;;;;9.17;99.75;100070.73;104699;1275;73151;-66
2022/04/15 03:25:49;;;;;;;36.00;17.20;;;;;;;9.19;99.77;100072.00;104781;1278;68102;-64
2022/04/15 03:28:37;;;;;;;36.60;17.30;;;;;;;9.20;99.84;100069.25;104613;1275;74027;-65
2022/04/15 03:31:26;;;;;;;35.30;17.50;;;;;;;9.20;99.90;100067.84;104562;1274;60605;-68
2022/04/15 03:34:14;;;;;;;34.30;16.00;;;;;;;9.22;99.93;100068.78;104563;1274;61095;-66
2022/04/15 03:37:02;;;;;;;32.00;15.70;;;;;;;9.23;99.95;100062.69;104704;1274;75404;-70
2022/04/15 03:39:52;;;;;;;32.30;15.20;;;;;;;9.23;99.97;100061.51;104768;1274;68277;-65
2022/04/15 03:42:57;;;;;;;31.60;14.70;;;;;;;9.20;100.00;100061.70;104582;1274;74485;-66
2022/04/15 03:45:46;;;;;;;33.90;15.60;;;;;;;9.16;99.92;100063.58;104602;1274;60508;-66
2022/04/15 03:48:34;;;;;;;31.60;15.30;;;;;;;9.15;100.00;100066.27;104573;1275;62066;-67
2022/04/15 03:51:21;;;;;;;35.20;16.30;;;;;;;9.15;100.00;100068.77;104694;1274;75194;-67
2022/04/15 03:54:10;;;;;;;34.90;16.90;;;;;;;9.15;100.00;100070.54;104563;1274;68529;-68
2022/04/15 03:56:58;;;;;;;34.60;15.70;;;;;;;9.16;100.00;100072.89;104573;1274;73481;-68
2022/04/15 03:59:46;;;;;;;34.10;16.20;;;;;;;9.17;100.00;100071.79;104521;1274;60513;-69
2022/04/15 04:02:34;;;;;;;32.50;16.10;;;;;;;9.15;100.00;100060.46;104771;1274;61241;-67
2022/04/15 04:05:23;;;;;;;35.30;16.80;;;;;;;9.17;100.00;100066.63;104599;1274;75617;-64
2022/04/15 04:08:11;;;;;;;31.80;15.00;;;;;;;9.17;100.00;100071.97;104779;1274;69796;-66
2022/04/15 04:10:59;;;;;;;31.20;14.90;;;;;;;9.16;100.00;100074.70;105294;1274;72873;-66
2022/04/15 04:13:48;;;;;;;30.70;15.20;;;;;;;9.17;100.00;100076.89;105275;1274;60507;-66
2022/04/15 04:16:36;;;;;;;30.70;15.90;;;;;;;9.18;100.00;100082.15;105109;1274;62483;-68
2022/04/15 04:19:24;;;;;;;31.00;15.70;;;;;;;9.18;99.96;100083.93;104615;1275;73729;-66
2022/04/15 04:22:12;;;;;;;32.30;14.60;;;;;;;9.19;100.00;100085.43;104643;1274;68711;-66
2022/04/15 04:25:01;;;;;;;29.40;14.60;;;;;;;9.22;100.00;100084.94;104847;1274;73178;-71
2022/04/15 04:27:49;;;;;;;27.60;15.00;;;;;;;9.22;99.98;100090.79;104849;1274;60494;-69
2022/04/15 04:30:37;;;;;;;30.80;15.40;;;;;;;9.19;100.00;100090.56;104935;1275;60807;-67
2022/04/15 04:33:25;;;;;;;30.60;15.10;;;;;;;9.18;99.99;100090.16;104672;1275;73457;-68
2022/04/15 04:36:13;;;;;;;28.50;14.30;;;;;;;9.19;100.00;100095.37;104779;1274;68099;-71
2022/04/15 04:39:01;;;;;;;31.00;13.70;;;;;;;9.19;100.00;100100.84;104826;1275;73472;-71
2022/04/15 04:41:49;;;;;;;27.60;13.30;;;;;;;9.19;100.00;100102.42;104799;1274;61087;-68
2022/04/15 04:44:39;;;;;;;31.60;14.50;;;;;;;9.20;100.00;100108.08;104722;1275;60589;-68
2022/04/15 04:47:28;;;;;;;30.20;15.90;;;;;;;9.21;100.00;100103.72;104643;1274;74492;-67
2022/04/15 04:50:16;;;;;;;30.10;15.00;;;;;;;9.24;100.00;100107.23;104561;1275;67549;-67
2022/04/15 04:53:04;;;;;;;31.00;14.50;;;;;;;9.28;100.00;100109.44;104927;1274;72700;-68
2022/04/15 04:55:53;;;;;;;31.70;15.60;;;;;;;9.30;100.00;100110.19;104664;1275;60536;-67
2022/04/15 04:58:42;;;;;;;33.60;15.30;;;;;;;9.30;100.00;100110.52;104572;1274;60729;-69
2022/04/15 05:01:29;;;;;;;33.00;16.80;;;;;;;9.30;100.00;100113.55;104594;1274;74543;-67
2022/04/15 05:04:18;;;;;;;31.70;16.00;;;;;;;9.31;100.00;100117.70;104359;1276;67848;-72
2022/04/15 05:07:06;;;;;;;32.80;15.70;;;;;;;9.32;100.00;100121.54;104903;1275;72129;-69
2022/04/15 05:09:54;;;;;;;32.80;16.30;;;;;;;9.28;100.00;100114.20;104975;1275;61017;-69
2022/04/15 05:12:42;;;;;;;29.30;15.30;;;;;;;9.34;100.00;100122.85;104917;1274;60649;-68
2022/04/15 05:15:30;;;;;;;35.50;18.30;;;;;;;9.35;100.00;100126.84;105150;1274;74508;-63
2022/04/15 05:18:18;;;;;;;31.80;15.60;;;;;;;9.38;100.00;100129.43;104963;1274;69603;-65
2022/04/15 05:21:05;;;;;;;33.60;16.90;;;;;;;9.39;100.00;100126.73;104615;1274;74460;-69
2022/04/15 05:23:53;;;;;;;36.60;17.80;;;;;;;9.40;100.00;100125.96;104903;1274;60758;-64
2022/04/15 05:26:41;;;;;;;33.50;15.90;;;;;;;9.41;99.90;100130.80;104746;1274;60885;-69
2022/04/15 05:29:29;;;;;;;31.70;16.00;;;;;;;9.42;99.91;100130.75;104905;1274;75132;-65
2022/04/15 05:32:18;;;;;;;30.30;15.40;;;;;;;9.42;99.71;100135.56;104792;1274;68571;-68
2022/04/15 05:35:07;;;;;;;35.40;16.90;;;;;;;9.41;99.87;100132.23;104521;1277;71598;-67
2022/04/15 05:37:54;;;;;;;32.00;15.50;;;;;;;9.44;99.96;100136.64;104644;1274;61216;-67
2022/04/15 05:40:42;;;;;;;32.40;16.20;;;;;;;9.50;99.98;100136.40;104692;1274;60404;-65
2022/04/15 05:43:31;;;;;;;30.10;14.20;;;;;;;9.52;99.81;100136.04;104806;1274;75684;-64
2022/04/15 05:46:19;;;;;;;29.00;15.10;;;;;;;9.54;99.82;100137.13;104728;1275;68777;-64
2022/04/15 05:49:13;;;;;;;28.10;14.20;;;;;;;9.57;99.64;100139.27;104673;1274;73184;-67
2022/04/15 05:52:02;;;;;;;29.10;13.80;;;;;;;9.58;99.23;100139.55;104913;1274;60856;-68
2022/04/15 05:54:50;;;;;;;27.60;14.40;;;;;;;9.59;99.23;100143.16;104674;1274;61065;-67
2022/04/15 05:57:38;;;;;;;31.00;15.90;;;;;;;9.63;99.06;100144.34;104647;1275;72608;-68
2022/04/15 06:00:26;;;;;;;33.00;15.50;;;;;;;9.68;98.95;100149.77;104741;1275;67827;-70
2022/04/15 06:03:14;;;;;;;27.80;14.20;;;;;;;9.76;98.71;100144.22;104666;1274;73377;-66
2022/04/15 06:06:02;;;;;;;27.10;13.20;;;;;;;9.85;98.63;100145.90;104647;1274;60505;-67
2022/04/15 06:08:50;;;;;;;26.00;12.60;;;;;;;9.94;98.23;100148.11;104867;1274;61448;-68
2022/04/15 06:11:41;;;;;;;23.90;12.20;;;;;;;9.98;97.22;100149.19;104944;1274;75086;-69
2022/04/15 06:14:33;;;;;;;23.00;12.40;;;;;;;9.98;96.97;100153.42;104663;1274;68589;-69
2022/04/15 06:17:22;;;;;;;23.60;12.10;;;;;;;9.92;96.52;100161.55;105005;1274;73290;-65
2022/04/15 06:20:17;;;;;;;30.50;14.40;;;;;;;9.77;96.34;100179.41;104606;1275;60372;-66
2022/04/15 06:23:05;;;;;;;25.70;11.10;;;;;;;9.47;94.71;100183.19;104508;1275;60461;-65
2022/04/15 06:25:55;;;;;;;22.30;10.50;;;;;;;9.12;94.30;100197.45;104678;1275;74621;-66
2022/04/15 06:28:43;;;;;;;20.80;9.60;;;;;;;8.90;94.60;100197.23;104754;1275;68791;-66
2022/04/15 06:31:31;;;;;;;18.00;8.40;;;;;;;8.76;95.02;100196.20;104652;1274;74403;-66
2022/04/15 06:34:19;;;;;;;17.60;8.60;;;;;;;8.65;95.57;100204.06;104628;1274;60490;-66
2022/04/15 06:37:07;;;;;;;15.00;6.40;;;;;;;8.55;95.20;100208.76;104643;1274;60477;-64
2022/04/15 06:39:59;;;;;;;14.80;6.40;;;;;;;8.45;94.76;100210.49;104755;1274;73506;-65
2022/04/15 06:42:47;;;;;;;15.00;6.30;;;;;;;8.32;94.03;100210.10;104591;1274;67654;-66
2022/04/15 06:45:35;;;;;;;13.00;5.30;;;;;;;8.15;93.40;100211.87;104667;1274;71784;-64
2022/04/15 06:48:24;;;;;;;13.40;5.60;;;;;;;8.02;93.66;100216.61;104674;1275;60494;-65
2022/04/15 06:51:12;;;;;;;14.30;5.70;;;;;;;7.91;93.85;100224.91;104649;1275;62169;-66
2022/04/15 06:54:00;;;;;;;13.60;5.50;;;;;;;7.77;93.04;100229.88;104995;1274;74713;-65
2022/04/15 06:56:48;;;;;;;11.90;5.10;;;;;;;7.65;92.54;100237.17;104680;1274;66425;-67
2022/04/15 06:59:39;;;;;;;12.50;4.80;;;;;;;7.53;92.51;100239.85;104589;1274;73516;-68
2022/04/15 07:02:27;;;;;;;12.80;5.00;;;;;;;7.37;92.34;100238.53;104619;1274;60934;-66
2022/04/15 07:05:16;;;;;;;11.80;4.50;;;;;;;7.21;92.28;100240.55;104585;1274;60434;-66
2022/04/15 07:08:07;;;;;;;11.20;4.50;;;;;;;7.12;92.88;100241.11;104681;1274;72346;-66
2022/04/15 07:10:55;;;;;;;12.20;5.50;;;;;;;7.00;92.98;100245.00;104649;1274;66987;-66
2022/04/15 07:13:45;;;;;;;10.70;4.70;;;;;;;6.92;93.52;100245.64;104667;1274;73457;-64
2022/04/15 07:16:34;;;;;;;13.50;5.90;;;;;;;6.87;93.67;100248.80;104683;1274;60512;-65
2022/04/15 07:19:23;;;;;;;12.30;5.80;;;;;;;6.82;94.19;100249.39;104900;1274;60455;-68
2022/04/15 07:22:11;;;;;;;12.90;6.20;;;;;;;6.81;94.41;100252.31;104709;1274;76051;-69
2022/04/15 07:24:59;;;;;;;11.90;5.80;;;;;;;6.80;94.53;100254.63;106290;1274;66826;-66
2022/04/15 07:27:47;;;;;;;13.80;6.50;;;;;;;6.81;94.99;100258.25;106072;1274;73219;-65
2022/04/15 07:30:37;;;;;;;12.20;5.90;;;;;;;6.89;95.25;100258.86;106028;1274;60478;-67
2022/04/15 07:33:25;;;;;;;11.40;5.40;;;;;;;6.96;94.76;100261.27;105401;1273;60336;-64
2022/04/15 07:39:22;;;;;;;12.90;5.80;;;;;;;6.93;93.41;100269.73;104828;1275;66628;-65
2022/04/15 07:42:12;;;;;;;14.10;6.70;;;;;;;6.91;93.58;100272.02;104784;1274;72574;-70
2022/04/15 07:45:00;;;;;;;13.00;6.40;;;;;;;6.88;93.64;100269.70;104540;1274;60516;-67
2022/04/15 07:47:48;;;;;;;14.80;7.10;;;;;;;6.86;93.58;100268.95;104877;1274;62145;-67
2022/04/15 07:50:38;;;;;;;15.50;7.10;;;;;;;6.81;93.99;100271.84;104964;1274;75683;-69
2022/04/15 07:53:26;;;;;;;14.20;7.40;;;;;;;6.76;93.84;100273.02;104701;1274;68970;-67
2022/04/15 07:56:14;;;;;;;16.70;7.80;;;;;;;6.73;94.05;100273.91;104746;1274;73554;-68
2022/04/15 07:59:03;;;;;;;19.10;9.40;;;;;;;6.72;94.31;100276.64;104922;1274;60602;-67
2022/04/15 08:01:52;;;;;;;17.50;9.00;;;;;;;6.75;94.51;100282.27;105209;1274;62089;-70
2022/04/15 08:04:41;;;;;;;17.40;9.60;;;;;;;6.71;92.91;100284.66;104643;1274;75413;-67
2022/04/15 08:07:29;;;;;;;18.40;10.40;;;;;;;6.60;92.50;100286.45;105020;1274;69566;-68
2022/04/15 08:10:17;;;;;;;19.70;11.50;;;;;;;6.52;92.51;100283.09;104721;1274;72127;-68
2022/04/15 08:13:05;;;;;;;20.40;12.40;;;;;;;6.51;92.49;100293.50;104773;1274;60493;-68
2022/04/15 08:15:53;;;;;;;20.30;11.70;;;;;;;6.53;93.04;100296.80;104821;1274;60480;-69
2022/04/15 08:18:42;;;;;;;22.90;12.50;;;;;;;6.53;93.50;100298.52;104817;1274;74121;-69
2022/04/15 08:21:31;;;;;;;22.20;12.20;;;;;;;6.49;93.05;100301.91;104797;1274;68648;-69
2022/04/15 08:24:19;;;;;;;23.90;13.00;;;;;;;6.46;93.17;100302.77;104940;1275;72503;-66
2022/04/15 08:27:07;;;;;;;22.90;12.90;;;;;;;6.49;93.60;100311.41;104949;1274;60700;-67
2022/04/15 08:29:57;;;;;;;21.50;13.30;;;;;;;6.54;93.46;100312.23;104941;1274;61111;-70
2022/04/15 08:32:53;;;;;;;22.90;13.70;;;;;;;6.60;93.84;100314.48;104926;1274;74329;-68
2022/04/15 08:35:41;;;;;;;31.70;17.70;;;;;;;6.70;93.42;100315.91;104870;1273;66892;-70
2022/04/15 08:38:29;;;;;;;30.80;17.00;;;;;;;6.69;91.91;100321.60;104715;1274;73421;-70
2022/04/15 08:41:19;;;;;;;37.80;18.70;;;;;;;6.59;91.51;100330.05;104763;1274;60484;-67
2022/04/15 08:44:08;;;;;;;36.30;19.80;;;;;;;6.48;92.32;100334.20;104657;1274;60920;-67
2022/04/15 08:46:58;;;;;;;36.50;19.90;;;;;;;6.38;92.19;100336.52;104714;1274;74958;-66
2022/04/15 08:49:47;;;;;;;33.30;18.90;;;;;;;6.32;92.76;100337.40;104927;1274;66333;-69
2022/04/15 08:52:36;;;;;;;37.20;19.00;;;;;;;6.27;93.09;100339.46;104584;1274;72695;-69
2022/04/15 08:55:27;;;;;;;36.10;19.00;;;;;;;6.25;93.28;100343.23;104733;1274;60574;-68
2022/04/15 08:58:16;;;;;;;41.30;20.40;;;;;;;6.23;93.31;100349.20;104732;1275;61667;-70
2022/04/15 09:01:07;;;;;;;42.80;20.20;;;;;;;6.19;94.11;100353.80;104695;1274;74569;-67
2022/04/15 09:03:57;;;;;;;35.10;16.90;;;;;;;6.19;94.27;100359.27;104567;1274;69888;-69
2022/04/15 09:06:45;;;;;;;41.80;19.40;;;;;;;6.14;93.96;100368.19;104525;1274;264864;-69
2022/04/15 09:09:33;;;;;;;36.20;17.40;;;;;;;6.07;94.25;100366.96;104946;1274;60616;-68
2022/04/15 09:12:29;;;;;;;36.60;15.90;;;;;;;5.97;94.17;100374.55;104688;1274;61081;-69
2022/04/15 09:15:18;;;;;;;36.20;17.60;;;;;;;5.85;94.46;100377.48;104790;1274;73521;-68
2022/04/15 09:18:06;;;;;;;33.80;16.00;;;;;;;5.73;94.88;100383.52;104824;1274;68123;-71
2022/04/15 09:21:17;;;;;;;32.30;15.40;;;;;;;5.68;95.91;100386.25;105139;1274;73551;-68
2022/04/15 09:24:07;;;;;;;26.50;12.60;;;;;;;5.61;96.51;100390.83;105038;1274;60539;-68
2022/04/15 09:26:54;;;;;;;24.90;11.20;;;;;;;5.51;96.04;100393.25;104825;1274;60522;-71
2022/04/15 09:29:42;;;;;;;24.50;11.70;;;;;;;5.43;96.29;100391.58;104760;1274;73674;-68
2022/04/15 09:32:31;;;;;;;23.60;11.00;;;;;;;5.43;96.86;100394.02;104739;1274;68511;-69
2022/04/15 09:35:18;;;;;;;19.40;8.90;;;;;;;5.46;97.16;100400.05;105021;1274;73010;-69
2022/04/15 09:38:06;;;;;;;19.70;7.90;;;;;;;5.45;96.67;100398.31;104003;1275;1003026;-69
2022/04/15 09:40:59;;;;;;;15.00;7.00;;;;;;;5.40;96.79;100404.04;104766;1275;60422;-71
2022/04/15 09:43:51;;;;;;;15.00;6.90;;;;;;;5.35;96.83;100404.13;104696;1274;74596;-69
2022/04/15 09:46:44;;;;;;;15.30;6.00;;;;;;;5.30;97.36;100405.44;105063;1275;67325;-67
2022/04/15 09:49:34;;;;;;;13.30;5.90;;;;;;;5.25;97.71;100410.27;104777;1274;73511;-69
2022/04/15 09:52:25;;;;;;;16.00;5.70;;;;;;;5.25;98.08;100410.43;104850;1274;60905;-67
2022/04/15 09:55:16;;;;;;;16.00;6.90;;;;;;;5.25;98.43;100412.75;104638;1276;62084;-68
2022/04/15 09:58:17;;;;;;;14.30;6.10;;;;;;;5.23;98.14;100415.11;105209;1274;74381;-67
2022/04/15 10:01:08;;;;;;;15.70;6.40;;;;;;;5.16;98.46;100420.05;104678;1274;66924;-68
2022/04/15 10:03:59;;;;;;;17.00;7.00;;;;;;;5.13;99.09;100420.51;104912;1274;74418;-67
2022/04/15 10:06:52;;;;;;;14.30;6.20;;;;;;;5.11;99.05;100424.28;104861;1274;61024;-70
2022/04/15 10:09:42;;;;;;;12.30;5.90;;;;;;;5.15;99.45;100431.54;104588;1274;60421;-67
2022/04/15 10:12:35;;;;;;;13.20;6.20;;;;;;;5.09;99.05;100436.16;104683;1274;73223;-69
2022/04/15 10:15:24;;;;;;;13.70;6.10;;;;;;;5.04;99.63;100441.02;104686;1274;69965;-70
2022/04/15 10:18:13;;;;;;;15.80;6.20;;;;;;;5.01;99.69;100442.39;104653;1274;72222;-69
2022/04/15 10:21:03;;;;;;;15.00;6.60;;;;;;;4.95;99.97;100445.34;104701;1274;60532;-69
2022/04/15 10:23:52;;;;;;;12.90;5.90;;;;;;;4.92;100.00;100448.27;104707;1274;60824;-68
2022/04/15 10:26:44;;;;;;;14.80;6.40;;;;;;;4.91;100.00;100453.07;104515;1274;73833;-69
2022/04/15 10:29:32;;;;;;;13.00;5.20;;;;;;;4.91;100.00;100459.01;104899;1274;69653;-68
2022/04/15 10:32:20;;;;;;;14.10;6.40;;;;;;;4.90;100.00;100460.52;104797;1274;73449;-68
2022/04/15 10:35:19;;;;;;;14.20;5.90;;;;;;;4.84;100.00;100463.77;104541;1275;60616;-68
2022/04/15 10:38:12;;;;;;;15.00;6.50;;;;;;;4.78;100.00;100466.66;103854;1274;1003818;-69
2022/04/15 10:41:16;;;;;;;14.60;6.50;;;;;;;4.76;100.00;100471.36;104449;1274;73698;-67
2022/04/15 10:44:04;;;;;;;14.70;5.90;;;;;;;4.77;100.00;100474.45;104691;1274;68694;-69
2022/04/15 10:47:00;;;;;;;13.00;5.90;;;;;;;4.74;100.00;100482.16;104839;1274;72885;-70
2022/04/15 10:50:03;;;;;;;15.00;6.70;;;;;;;4.64;100.00;100479.48;104812;1274;60477;-71
2022/04/15 10:52:52;;;;;;;14.20;5.80;;;;;;;4.61;100.00;100481.88;104597;1275;60560;-68
2022/04/15 10:55:52;;;;;;;12.80;5.60;;;;;;;4.65;100.00;100487.52;104716;1274;74499;-70
2022/04/15 11:02:02;;;;;;;14.80;5.70;;;;;;;4.59;100.00;100491.08;104972;1273;73477;-69
2022/04/15 11:04:52;;;;;;;11.80;5.20;;;;;;;4.59;100.00;100495.89;104741;1274;60471;-69
2022/04/15 11:08:03;;;;;;;11.90;4.70;;;;;;;4.58;100.00;100499.06;104856;1274;60432;-69
2022/04/15 11:10:51;;;;;;;12.10;4.90;;;;;;;4.58;100.00;100504.34;104909;1274;75772;-67
2022/04/15 11:13:39;;;;;;;11.30;5.20;;;;;;;4.60;100.00;100503.57;104653;1274;69666;-71
2022/04/15 11:16:50;;;;;;;11.50;4.30;;;;;;;4.63;100.00;100508.19;104938;1274;73435;-68
2022/04/15 11:19:40;;;;;;;12.00;4.70;;;;;;;4.64;100.00;100510.59;105015;1274;61015;-69
2022/04/15 11:22:29;;;;;;;12.00;4.80;;;;;;;4.66;100.00;100512.44;104995;1274;60470;-67
2022/04/15 11:25:17;;;;;;;10.60;4.70;;;;;;;4.66;100.00;100517.69;104986;1274;74738;-68
2022/04/15 11:28:06;;;;;;;12.10;4.60;;;;;;;4.66;100.00;100521.21;104707;1274;68577;-71
2022/04/15 11:30:54;;;;;;;13.60;5.10;;;;;;;4.62;100.00;100519.82;104645;1274;71797;-69
2022/04/15 11:33:42;;;;;;;10.60;4.60;;;;;;;4.58;100.00;100525.45;104786;1274;60368;-71
2022/04/15 11:36:42;;;;;;;13.70;4.80;;;;;;;4.54;100.00;100530.38;105237;1274;61458;-70
2022/04/15 11:39:35;;;;;;;12.30;5.50;;;;;;;4.47;100.00;100533.87;104750;1274;74657;-70
2022/04/15 11:42:23;;;;;;;10.70;4.70;;;;;;;4.41;100.00;100536.04;104980;1274;67884;-70
2022/04/15 11:45:13;;;;;;;13.30;5.20;;;;;;;4.36;100.00;100540.98;104953;1274;74484;-69
2022/04/15 11:48:20;;;;;;;13.30;5.50;;;;;;;4.30;100.00;100548.11;105018;1274;61053;-69
2022/04/15 11:51:08;;;;;;;18.00;6.60;;;;;;;4.17;100.00;100551.50;104875;1274;62208;-70
2022/04/15 11:53:59;;;;;;;12.20;5.80;;;;;;;4.08;100.00;100556.08;104946;1274;74348;-68
2022/04/15 11:56:54;;;;;;;15.10;6.50;;;;;;;4.01;100.00;100561.14;104732;1275;67990;-70
2022/04/15 11:59:47;;;;;;;14.40;6.40;;;;;;;3.93;100.00;100568.33;104803;1274;73564;-70
2022/04/15 12:02:42;;;;;;;12.70;5.70;;;;;;;3.86;100.00;100570.89;105037;1274;60508;-68
2022/04/15 12:05:31;;;;;;;16.90;7.20;;;;;;;3.79;100.00;100573.30;104669;1275;60557;-67
2022/04/15 12:08:36;;;;;;;18.90;8.00;;;;;;;3.77;100.00;100576.00;104717;1274;75728;-66
2022/04/15 12:11:29;;;;;;;14.10;5.90;;;;;;;3.78;100.00;100578.94;104889;1274;66535;-72
2022/04/15 12:14:18;;;;;;;15.40;7.30;;;;;;;3.78;100.00;100582.80;104828;1274;72933;-70
2022/04/15 12:17:08;;;;;;;17.90;8.00;;;;;;;3.79;100.00;100588.93;104419;1274;60484;-69
2022/04/15 12:19:57;;;;;;;17.30;8.90;;;;;;;3.79;100.00;100589.96;104455;1274;61270;-70
2022/04/15 12:22:45;;;;;;;15.80;8.60;;;;;;;3.78;100.00;100599.30;104704;1274;72797;-67
2022/04/15 12:31:51;;;;;;;16.60;8.10;;;;;;;3.74;100.00;100601.05;104776;1274;60472;-70
2022/04/15 12:34:39;;;;;;;13.40;6.40;;;;;;;3.75;100.00;100612.58;104684;1274;60595;-70
2022/04/15 12:37:39;;;;;;;13.40;7.10;;;;;;;3.67;100.00;100613.27;104700;1274;74647;-69
2022/04/15 12:40:30;;;;;;;16.70;8.30;;;;;;;3.63;100.00;100615.35;104741;1274;66896;-68
2022/04/15 12:43:18;;;;;;;13.40;6.00;;;;;;;3.64;100.00;100620.06;104639;1274;73969;-69
2022/04/15 12:46:18;;;;;;;14.00;6.30;;;;;;;3.62;100.00;100624.52;104663;1274;60385;-70
2022/04/15 12:49:28;;;;;;;14.80;6.00;;;;;;;3.59;100.00;100624.65;104856;1274;60450;-68
2022/04/15 12:52:19;;;;;;;16.10;6.90;;;;;;;3.60;100.00;100628.64;104644;1274;75576;-68
2022/04/15 12:55:07;;;;;;;12.70;6.20;;;;;;;3.63;100.00;100634.81;104832;1274;66415;-70
2022/04/15 12:57:58;;;;;;;12.80;6.50;;;;;;;3.67;100.00;100637.98;104606;1274;71474;-65
2022/04/15 13:00:48;;;;;;;11.70;6.70;;;;;;;3.67;100.00;100640.12;104613;1274;60587;-66
2022/04/15 13:03:36;;;;;;;11.50;5.80;;;;;;;3.68;100.00;100640.61;104749;1274;62155;-67
2022/04/15 13:06:24;;;;;;;12.10;6.10;;;;;;;3.65;100.00;100641.42;104819;1274;75148;-69